F/V Kab David 3 — FHZU — position and weather

sailwx.info

Track history (hours):
 
Tides and Currents Weather Stations Pressure Air Temp Water Temp Dewpoint Dewpoint Depression Visibility Wind Speed Wind Dir Waves Ship Positions

F/V Kab David 3

Last reported at 2017-Nov-23 23:42 UTC. Time now 2017-Nov-24 00:23 UTC.
Position N 47°18' W 002°31'.

Length 15 m.

Type: Other ship. MMSI: 228813000.

Date/timePositionNaut miles runAvg speedWind from/ knotsBaromVisibWave heightAir tempDewpointWater temp
2017-Nov-23 23:42N 47°18' W 002°31'0 0.0
2017-Nov-23 23:30N 47°18' W 002°31'0 0.0
2017-Nov-23 22:59N 47°18' W 002°31'0 0.0
2017-Nov-23 22:29N 47°18' W 002°31'0 0.0
2017-Nov-23 22:00N 47°18' W 002°31'0 0.0
2017-Nov-23 21:30N 47°18' W 002°31'0 0.0
2017-Nov-23 21:00N 47°18' W 002°31'0 0.0
2017-Nov-23 17:52N 47°18' W 002°31'0 0.0
2017-Nov-23 16:42N 47°18' W 002°31'0 0.0
2017-Nov-23 16:30N 47°18' W 002°31'0 0.0
2017-Nov-23 15:59N 47°18' W 002°31'0 0.8
2017-Nov-23 15:26N 47°18' W 002°31'2 3.3
2017-Nov-23 14:56N 47°17' W 002°31'3 0.4
2017-Nov-23 08:40N 47°16' W 002°27'0 0.5
2017-Nov-23 07:39N 47°16' W 002°28'2 6.8
2017-Nov-23 07:21N 47°15' W 002°25'7 6.4
2017-Nov-23 06:18N 47°18' W 002°33'2 5.4
2017-Nov-23 06:00N 47°18' W 002°31'0 0.4
2017-Nov-23 05:30N 47°18' W 002°31'0 0.0
2017-Nov-23 05:00N 47°18' W 002°31'0 0.0
2017-Nov-23 04:03N 47°18' W 002°31'0 0.0
2017-Nov-23 03:59N 47°18' W 002°31'0 0.0
2017-Nov-23 03:26N 47°18' W 002°31'0 0.0
2017-Nov-23 02:23N 47°18' W 002°31'0 0.0
2017-Nov-22 20:42N 47°18' W 002°31'0 0.0
2017-Nov-22 20:25N 47°18' W 002°31'0 0.0
2017-Nov-22 19:47N 47°18' W 002°31'0 0.0
2017-Nov-22 19:19N 47°18' W 002°31'  
2017-Nov-20 00:30N 47°18' W 002°31'0 0.0
2017-Nov-19 23:59N 47°18' W 002°31'0 0.0
2017-Nov-19 23:30N 47°18' W 002°31'0 0.0
2017-Nov-19 23:00N 47°18' W 002°31'0 0.0
2017-Nov-19 22:30N 47°18' W 002°31'0 0.0
2017-Nov-19 22:00N 47°18' W 002°31'0 0.0
2017-Nov-19 21:30N 47°18' W 002°31'0 0.0
2017-Nov-19 21:00N 47°18' W 002°31'0 0.0
2017-Nov-19 20:30N 47°18' W 002°31'0 0.0
2017-Nov-19 20:00N 47°18' W 002°31'0 0.0
2017-Nov-19 19:30N 47°18' W 002°31'0 0.0
2017-Nov-19 19:00N 47°18' W 002°31'0 0.0
2017-Nov-19 18:30N 47°18' W 002°31'0 0.0
2017-Nov-19 18:00N 47°18' W 002°31'0 0.0
2017-Nov-19 17:30N 47°18' W 002°31'0 0.0
2017-Nov-19 16:56N 47°18' W 002°31'0 0.0
2017-Nov-19 16:30N 47°18' W 002°31'0 0.0
2017-Nov-19 16:00N 47°18' W 002°31'0 0.0
2017-Nov-19 15:30N 47°18' W 002°31'0 0.0
2017-Nov-19 15:00N 47°18' W 002°31'0 0.0
2017-Nov-19 14:30N 47°18' W 002°31'0 0.0
2017-Nov-19 14:00N 47°18' W 002°31'0 0.0
2017-Nov-19 13:30N 47°18' W 002°31'0 0.0
2017-Nov-19 13:00N 47°18' W 002°31'0 0.0
2017-Nov-19 12:30N 47°18' W 002°31'0 0.0
2017-Nov-19 12:00N 47°18' W 002°31'0 0.0
2017-Nov-19 11:30N 47°18' W 002°31'0 0.0
2017-Nov-19 11:00N 47°18' W 002°31'0 0.0
2017-Nov-19 10:30N 47°18' W 002°31'0 0.0
2017-Nov-19 10:00N 47°18' W 002°31'0 0.0
2017-Nov-19 09:30N 47°18' W 002°31'0 0.0
2017-Nov-19 09:00N 47°18' W 002°31'0 0.0
2017-Nov-19 08:29N 47°18' W 002°31'0 0.0
2017-Nov-19 08:00N 47°18' W 002°31'0 0.0
2017-Nov-19 07:30N 47°18' W 002°31'0 0.0
2017-Nov-19 07:00N 47°18' W 002°31'0 0.0
2017-Nov-19 06:30N 47°18' W 002°31'0 0.0
2017-Nov-19 05:59N 47°18' W 002°31'0 0.0
2017-Nov-19 05:30N 47°18' W 002°31'0 0.0
2017-Nov-19 05:00N 47°18' W 002°31'0 0.0
2017-Nov-19 04:30N 47°18' W 002°31'0 0.0
2017-Nov-19 04:00N 47°18' W 002°31'0 0.0
2017-Nov-19 03:30N 47°18' W 002°31'0 0.0
2017-Nov-19 03:00N 47°18' W 002°31'0 0.0
2017-Nov-19 02:29N 47°18' W 002°31'0 0.0
2017-Nov-19 02:00N 47°18' W 002°31'0 0.0
2017-Nov-19 01:30N 47°18' W 002°31'0 0.0
2017-Nov-19 01:00N 47°18' W 002°31'0 0.0
2017-Nov-19 00:29N 47°18' W 002°31'0 0.0
2017-Nov-19 00:00N 47°18' W 002°31'0 0.0
2017-Nov-18 23:29N 47°18' W 002°31'0 0.0
2017-Nov-18 23:00N 47°18' W 002°31'0 0.0
2017-Nov-18 22:30N 47°18' W 002°31'0 0.0
2017-Nov-18 22:00N 47°18' W 002°31'0 0.0
2017-Nov-18 21:30N 47°18' W 002°31'0 0.0
2017-Nov-18 21:00N 47°18' W 002°31'0 0.0
2017-Nov-18 20:30N 47°18' W 002°31'0 0.0
2017-Nov-18 20:00N 47°18' W 002°31'0 0.0
2017-Nov-18 19:30N 47°18' W 002°31'0 0.0
2017-Nov-18 18:59N 47°18' W 002°31'0 0.0
2017-Nov-18 18:30N 47°18' W 002°31'0 0.0
2017-Nov-18 18:00N 47°18' W 002°31'0 0.0
2017-Nov-18 17:30N 47°18' W 002°31'0 0.0
2017-Nov-18 17:00N 47°18' W 002°31'0 0.0
2017-Nov-18 16:30N 47°18' W 002°31'0 0.0
2017-Nov-18 16:00N 47°18' W 002°31'0 0.0
2017-Nov-18 15:30N 47°18' W 002°31'0 0.0
2017-Nov-18 15:00N 47°18' W 002°31'0 0.0
2017-Nov-18 14:30N 47°18' W 002°31'0 0.0
2017-Nov-18 13:59N 47°18' W 002°31'0 0.0
2017-Nov-18 13:25N 47°18' W 002°31'0 0.0
2017-Nov-18 13:00N 47°18' W 002°31'0 0.0
2017-Nov-18 12:30N 47°18' W 002°31'0 0.0
2017-Nov-18 12:00N 47°18' W 002°31'0 0.0
2017-Nov-18 11:30N 47°18' W 002°31'0 0.0
2017-Nov-18 11:00N 47°18' W 002°31'0 0.0
2017-Nov-18 10:30N 47°18' W 002°31'0 0.0
2017-Nov-18 10:00N 47°18' W 002°31'0 0.0
2017-Nov-18 09:30N 47°18' W 002°31'0 0.0
2017-Nov-18 09:00N 47°18' W 002°31'0 0.0
2017-Nov-18 08:30N 47°18' W 002°31'0 0.0
2017-Nov-18 07:59N 47°18' W 002°31'0 0.0
2017-Nov-18 07:30N 47°18' W 002°31'0 0.0
2017-Nov-18 07:00N 47°18' W 002°31'0 0.0
2017-Nov-18 06:30N 47°18' W 002°31'0 0.0
2017-Nov-18 06:00N 47°18' W 002°31'0 0.0
2017-Nov-18 05:30N 47°18' W 002°31'0 0.0
2017-Nov-18 04:54N 47°18' W 002°31'0 0.0
2017-Nov-18 04:30N 47°18' W 002°31'0 0.0
2017-Nov-18 04:00N 47°18' W 002°31'0 0.0
2017-Nov-18 03:30N 47°18' W 002°31'0 0.0
2017-Nov-18 03:00N 47°18' W 002°31'0 0.0
2017-Nov-18 02:30N 47°18' W 002°31'0 0.0
2017-Nov-18 02:00N 47°18' W 002°31'0 0.0
2017-Nov-18 01:30N 47°18' W 002°31'0 0.0
2017-Nov-18 01:00N 47°18' W 002°31'0 0.0
2017-Nov-18 00:30N 47°18' W 002°31'0 0.0
2017-Nov-18 00:00N 47°18' W 002°31'0 0.0
2017-Nov-17 23:30N 47°18' W 002°31'0 0.0
2017-Nov-17 23:00N 47°18' W 002°31'0 0.0
2017-Nov-17 22:30N 47°18' W 002°31'0 0.0
2017-Nov-17 22:00N 47°18' W 002°31'0 0.0
2017-Nov-17 21:30N 47°18' W 002°31'0 0.0
2017-Nov-17 21:00N 47°18' W 002°31'0 0.0
2017-Nov-17 20:30N 47°18' W 002°31'0 0.0
2017-Nov-17 20:00N 47°18' W 002°31'0 0.1
2017-Nov-17 19:30N 47°18' W 002°31'13 1.8
2017-Nov-17 12:10N 47°05' W 002°28'1 0.8
2017-Nov-17 11:21N 47°05' W 002°27'1 1.3
2017-Nov-17 10:53N 47°06' W 002°28'1 1.4
2017-Nov-17 10:18N 47°06' W 002°29'2 2.5
2017-Nov-17 09:38N 47°07' W 002°31'0 3.6
2017-Nov-17 09:30N 47°06' W 002°31'1 1.2
2017-Nov-17 09:00N 47°06' W 002°32'1 1.7
2017-Nov-17 08:30N 47°07' W 002°33'1 1.9
2017-Nov-17 08:00N 47°07' W 002°32'1 2.8
2017-Nov-17 07:30N 47°07' W 002°34'1 1.1
2017-Nov-17 07:00N 47°07' W 002°34'1 2.0
2017-Nov-17 06:30N 47°06' W 002°35'0 0.7
2017-Nov-17 05:56N 47°06' W 002°35'2 5.4
2017-Nov-17 05:30N 47°05' W 002°38'1 0.7
2017-Nov-17 04:35N 47°05' W 002°38'1 9.6
2017-Nov-17 04:30N 47°05' W 002°38'8 9.5
2017-Nov-17 03:40N 47°13' W 002°35'2 9.3
2017-Nov-17 03:29N 47°15' W 002°35'4 9.0
2017-Nov-17 03:00N 47°19' W 002°32'1 2.3
2017-Nov-17 02:29N 47°18' W 002°31'0 0.0
2017-Nov-17 02:00N 47°18' W 002°31'0 0.0
2017-Nov-17 01:29N 47°18' W 002°31'0 0.0
2017-Nov-17 00:57N 47°18' W 002°31'0 0.0
2017-Nov-17 00:30N 47°18' W 002°31'0 0.0
2017-Nov-17 00:00N 47°18' W 002°31'0 0.0
2017-Nov-16 23:30N 47°18' W 002°31'0 0.0
2017-Nov-16 23:00N 47°18' W 002°31'0 0.0
2017-Nov-16 22:30N 47°18' W 002°31'0 0.0
2017-Nov-16 22:00N 47°18' W 002°31'0 0.0
2017-Nov-16 21:30N 47°18' W 002°31'0 0.0
2017-Nov-16 21:00N 47°18' W 002°31'0 0.0
2017-Nov-16 20:30N 47°18' W 002°31'0 0.0
2017-Nov-16 20:00N 47°18' W 002°31'0 0.0
2017-Nov-16 19:30N 47°18' W 002°31'0 0.0
2017-Nov-16 19:00N 47°18' W 002°31'0 0.0
2017-Nov-16 18:30N 47°18' W 002°31'0 0.0
2017-Nov-16 18:00N 47°18' W 002°31'0 0.0
2017-Nov-16 17:30N 47°18' W 002°31'0 0.0
2017-Nov-16 17:00N 47°18' W 002°31'0 0.0
2017-Nov-16 16:30N 47°18' W 002°31'0 0.0
2017-Nov-16 16:00N 47°18' W 002°31'0 0.0
2017-Nov-16 15:30N 47°18' W 002°31'1 2.2
2017-Nov-16 15:00N 47°19' W 002°32'4 9.0
2017-Nov-16 14:30N 47°14' W 002°33'4 8.3
2017-Nov-16 14:00N 47°10' W 002°31'5 9.1
2017-Nov-16 13:30N 47°06' W 002°28'1 2.7
2017-Nov-16 13:00N 47°05' W 002°27'0 0.8
2017-Nov-16 12:30N 47°05' W 002°27'1 1.0
2017-Nov-16 12:00N 47°06' W 002°28'2 3.3
2017-Nov-16 11:30N 47°06' W 002°30'1 2.8
2017-Nov-16 11:00N 47°07' W 002°32'1 1.3
2017-Nov-16 10:30N 47°06' W 002°31'1 1.9
2017-Nov-16 10:00N 47°07' W 002°32'1 1.1
2017-Nov-16 09:30N 47°07' W 002°31'0 1.0
2017-Nov-16 09:00N 47°06' W 002°31'1 1.2
2017-Nov-16 08:30N 47°07' W 002°32'1 2.8
2017-Nov-16 08:00N 47°07' W 002°34'0 0.7
2017-Nov-16 07:30N 47°06' W 002°35'1 2.0
2017-Nov-16 07:00N 47°06' W 002°35'2 4.8
2017-Nov-16 06:30N 47°04' W 002°37'1 1.5
2017-Nov-16 06:00N 47°03' W 002°38'3 5.6
2017-Nov-16 05:30N 47°03' W 002°42'1 1.7
2017-Nov-16 05:00N 47°03' W 002°41'4 8.1
2017-Nov-16 04:30N 47°07' W 002°40'4 8.9
2017-Nov-16 04:00N 47°11' W 002°37'5 9.5
2017-Nov-16 03:30N 47°16' W 002°35'3 6.9
2017-Nov-16 03:00N 47°18' W 002°31'0 0.0
2017-Nov-16 02:30N 47°18' W 002°31'0 0.0
2017-Nov-16 02:00N 47°18' W 002°31'0 0.0
2017-Nov-16 01:30N 47°18' W 002°31'0 0.0
2017-Nov-16 01:00N 47°18' W 002°31'0 0.0
2017-Nov-16 00:30N 47°18' W 002°31'0 0.0
2017-Nov-15 23:59N 47°18' W 002°31'0 0.0
2017-Nov-15 23:30N 47°18' W 002°31'0 0.0
2017-Nov-15 23:00N 47°18' W 002°31'0 0.0
2017-Nov-15 22:30N 47°18' W 002°31'0 0.0
2017-Nov-15 21:57N 47°18' W 002°31'0 0.0
2017-Nov-15 21:30N 47°18' W 002°31'0 0.0
2017-Nov-15 20:58N 47°18' W 002°31'0 0.0
2017-Nov-15 20:30N 47°18' W 002°31'0 0.0
2017-Nov-15 19:58N 47°18' W 002°31'0 0.0
2017-Nov-15 19:30N 47°18' W 002°31'0 0.0
2017-Nov-15 18:55N 47°18' W 002°31'0 0.0
2017-Nov-15 18:30N 47°18' W 002°31'0 0.0
2017-Nov-15 18:00N 47°18' W 002°31'0 0.0
2017-Nov-15 17:30N 47°18' W 002°31'0 0.0
2017-Nov-15 17:00N 47°18' W 002°31'2 3.1
2017-Nov-15 16:24N 47°18' W 002°34'4 9.2
2017-Nov-15 15:57N 47°14' W 002°32'6 9.3
2017-Nov-15 15:16N 47°08' W 002°29'3 9.1
2017-Nov-15 14:54N 47°05' W 002°28'0 0.3
2017-Nov-15 14:24N 47°05' W 002°28'2 3.2
2017-Nov-15 13:50N 47°06' W 002°29'2 0.8
2017-Nov-15 11:53N 47°07' W 002°31'1 0.9
2017-Nov-15 10:44N 47°07' W 002°33'1 2.5
2017-Nov-15 10:28N 47°07' W 002°32'0 0.1
2017-Nov-15 10:00N 47°07' W 002°32'3 5.6
2017-Nov-15 09:23N 47°05' W 002°36'2 3.9
2017-Nov-15 08:55N 47°04' W 002°38'2 2.8
2017-Nov-15 08:16N 47°03' W 002°36'1 2.2
2017-Nov-15 08:00N 47°03' W 002°36'2 4.3
2017-Nov-15 07:29N 47°01' W 002°34'1 1.9
2017-Nov-15 06:56N 47°02' W 002°36'2 4.3
2017-Nov-15 06:30N 47°02' W 002°38'0 0.4
2017-Nov-15 05:55N 47°02' W 002°39'2 5.6
2017-Nov-15 05:29N 47°04' W 002°41'0 0.9
2017-Nov-15 04:57N 47°04' W 002°40'4 7.9
2017-Nov-15 04:30N 47°07' W 002°39'5 9.8
2017-Nov-15 03:58N 47°12' W 002°37'5 9.6
2017-Nov-15 03:28N 47°17' W 002°34'3 5.8
2017-Nov-15 03:00N 47°18' W 002°31'0 0.0
2017-Nov-15 02:30N 47°18' W 002°31'0 0.0
2017-Nov-15 02:00N 47°18' W 002°31'0 0.0
2017-Nov-15 01:30N 47°18' W 002°31'0 0.0
2017-Nov-15 01:00N 47°18' W 002°31'0 0.0
2017-Nov-15 00:30N 47°18' W 002°31'0 0.0
2017-Nov-15 00:00N 47°18' W 002°31'0 0.0
2017-Nov-14 23:30N 47°18' W 002°31'0 0.0
2017-Nov-14 22:59N 47°18' W 002°31'0 0.0
2017-Nov-14 22:30N 47°18' W 002°31'0 0.0
2017-Nov-14 22:00N 47°18' W 002°31'0 0.0
2017-Nov-14 21:30N 47°18' W 002°31'0 0.0
2017-Nov-14 20:59N 47°18' W 002°31'0 0.0
2017-Nov-14 20:30N 47°18' W 002°31'0 0.0
2017-Nov-14 20:00N 47°18' W 002°31'0 0.0
2017-Nov-14 19:30N 47°18' W 002°31'0 0.0
2017-Nov-14 19:00N 47°18' W 002°31'0 0.0
2017-Nov-14 18:29N 47°18' W 002°31'0 0.0
2017-Nov-14 18:00N 47°18' W 002°31'0 0.0
2017-Nov-14 17:28N 47°18' W 002°31'0 0.0
2017-Nov-14 16:59N 47°18' W 002°31'0 0.0
2017-Nov-14 16:30N 47°18' W 002°31'13 4.0
2017-Nov-14 13:19N 47°05' W 002°27'4 1.5
2017-Nov-14 10:44N 47°07' W 002°33'0 0.4
2017-Nov-14 10:30N 47°06' W 002°33'3 6.1
2017-Nov-14 09:57N 47°05' W 002°37'1 0.9
2017-Nov-14 09:03N 47°05' W 002°38'0 1.6
2017-Nov-14 08:58N 47°05' W 002°38'3 5.7
2017-Nov-14 08:30N 47°03' W 002°35'1 1.3
2017-Nov-14 07:49N 47°02' W 002°34'2 2.4
2017-Nov-14 06:49N 47°02' W 002°38'0 0.9
2017-Nov-14 06:17N 47°03' W 002°38'3 7.1
2017-Nov-14 05:52N 47°05' W 002°41'0 0.4
2017-Nov-14 05:20N 47°05' W 002°40'3 9.5
2017-Nov-14 05:00N 47°08' W 002°40'5 9.8
2017-Nov-14 04:30N 47°12' W 002°37'5 9.6
2017-Nov-14 04:00N 47°17' W 002°34'3 5.2
2017-Nov-14 03:29N 47°18' W 002°31'0 0.0
2017-Nov-14 03:00N 47°18' W 002°31'0 0.0
2017-Nov-14 02:30N 47°18' W 002°31'0 0.0
2017-Nov-14 02:00N 47°18' W 002°31'0 0.0
2017-Nov-14 01:30N 47°18' W 002°31'0 0.0
2017-Nov-14 01:00N 47°18' W 002°31'0 0.0
2017-Nov-14 00:30N 47°18' W 002°31'0 0.0
2017-Nov-14 00:00N 47°18' W 002°31'  
Track history (hours):
 
Tides and Currents Weather Stations Pressure Air Temp Water Temp Dewpoint Dewpoint Depression Visibility Wind Speed Wind Dir Waves Ship Positions

F/V Kab David 3

Last reported at 2017-Nov-23 23:42 UTC. Time now 2017-Nov-24 00:23 UTC.
Position N 47°18' W 002°31'.

Length 15 m.

Type: Other ship. MMSI: 228813000.

Date/timePositionNaut miles runAvg speedWind from/ knotsBaromVisibWave heightAir tempDewpointWater temp
2017-Nov-23 23:42N 47°18' W 002°31'0 0.0
2017-Nov-23 23:30N 47°18' W 002°31'0 0.0
2017-Nov-23 22:59N 47°18' W 002°31'0 0.0
2017-Nov-23 22:29N 47°18' W 002°31'0 0.0
2017-Nov-23 22:00N 47°18' W 002°31'0 0.0
2017-Nov-23 21:30N 47°18' W 002°31'0 0.0
2017-Nov-23 21:00N 47°18' W 002°31'0 0.0
2017-Nov-23 17:52N 47°18' W 002°31'0 0.0
2017-Nov-23 16:42N 47°18' W 002°31'0 0.0
2017-Nov-23 16:30N 47°18' W 002°31'0 0.0
2017-Nov-23 15:59N 47°18' W 002°31'0 0.8
2017-Nov-23 15:26N 47°18' W 002°31'2 3.3
2017-Nov-23 14:56N 47°17' W 002°31'3 0.4
2017-Nov-23 08:40N 47°16' W 002°27'0 0.5
2017-Nov-23 07:39N 47°16' W 002°28'2 6.8
2017-Nov-23 07:21N 47°15' W 002°25'7 6.4
2017-Nov-23 06:18N 47°18' W 002°33'2 5.4
2017-Nov-23 06:00N 47°18' W 002°31'0 0.4
2017-Nov-23 05:30N 47°18' W 002°31'0 0.0
2017-Nov-23 05:00N 47°18' W 002°31'0 0.0
2017-Nov-23 04:03N 47°18' W 002°31'0 0.0
2017-Nov-23 03:59N 47°18' W 002°31'0 0.0
2017-Nov-23 03:26N 47°18' W 002°31'0 0.0
2017-Nov-23 02:23N 47°18' W 002°31'0 0.0
2017-Nov-22 20:42N 47°18' W 002°31'0 0.0
2017-Nov-22 20:25N 47°18' W 002°31'0 0.0
2017-Nov-22 19:47N 47°18' W 002°31'0 0.0
2017-Nov-22 19:19N 47°18' W 002°31'  
2017-Nov-20 00:30N 47°18' W 002°31'0 0.0
2017-Nov-19 23:59N 47°18' W 002°31'0 0.0
2017-Nov-19 23:30N 47°18' W 002°31'0 0.0
2017-Nov-19 23:00N 47°18' W 002°31'0 0.0
2017-Nov-19 22:30N 47°18' W 002°31'0 0.0
2017-Nov-19 22:00N 47°18' W 002°31'0 0.0
2017-Nov-19 21:30N 47°18' W 002°31'0 0.0
2017-Nov-19 21:00N 47°18' W 002°31'0 0.0
2017-Nov-19 20:30N 47°18' W 002°31'0 0.0
2017-Nov-19 20:00N 47°18' W 002°31'0 0.0
2017-Nov-19 19:30N 47°18' W 002°31'0 0.0
2017-Nov-19 19:00N 47°18' W 002°31'0 0.0
2017-Nov-19 18:30N 47°18' W 002°31'0 0.0
2017-Nov-19 18:00N 47°18' W 002°31'0 0.0
2017-Nov-19 17:30N 47°18' W 002°31'0 0.0
2017-Nov-19 16:56N 47°18' W 002°31'0 0.0
2017-Nov-19 16:30N 47°18' W 002°31'0 0.0
2017-Nov-19 16:00N 47°18' W 002°31'0 0.0
2017-Nov-19 15:30N 47°18' W 002°31'0 0.0
2017-Nov-19 15:00N 47°18' W 002°31'0 0.0
2017-Nov-19 14:30N 47°18' W 002°31'0 0.0
2017-Nov-19 14:00N 47°18' W 002°31'0 0.0
2017-Nov-19 13:30N 47°18' W 002°31'0 0.0
2017-Nov-19 13:00N 47°18' W 002°31'0 0.0
2017-Nov-19 12:30N 47°18' W 002°31'0 0.0
2017-Nov-19 12:00N 47°18' W 002°31'0 0.0
2017-Nov-19 11:30N 47°18' W 002°31'0 0.0
2017-Nov-19 11:00N 47°18' W 002°31'0 0.0
2017-Nov-19 10:30N 47°18' W 002°31'0 0.0
2017-Nov-19 10:00N 47°18' W 002°31'0 0.0
2017-Nov-19 09:30N 47°18' W 002°31'0 0.0
2017-Nov-19 09:00N 47°18' W 002°31'0 0.0
2017-Nov-19 08:29N 47°18' W 002°31'0 0.0
2017-Nov-19 08:00N 47°18' W 002°31'0 0.0
2017-Nov-19 07:30N 47°18' W 002°31'0 0.0
2017-Nov-19 07:00N 47°18' W 002°31'0 0.0
2017-Nov-19 06:30N 47°18' W 002°31'0 0.0
2017-Nov-19 05:59N 47°18' W 002°31'0 0.0
2017-Nov-19 05:30N 47°18' W 002°31'0 0.0
2017-Nov-19 05:00N 47°18' W 002°31'0 0.0
2017-Nov-19 04:30N 47°18' W 002°31'0 0.0
2017-Nov-19 04:00N 47°18' W 002°31'0 0.0
2017-Nov-19 03:30N 47°18' W 002°31'0 0.0
2017-Nov-19 03:00N 47°18' W 002°31'0 0.0
2017-Nov-19 02:29N 47°18' W 002°31'0 0.0
2017-Nov-19 02:00N 47°18' W 002°31'0 0.0
2017-Nov-19 01:30N 47°18' W 002°31'0 0.0
2017-Nov-19 01:00N 47°18' W 002°31'0 0.0
2017-Nov-19 00:29N 47°18' W 002°31'0 0.0
2017-Nov-19 00:00N 47°18' W 002°31'0 0.0
2017-Nov-18 23:29N 47°18' W 002°31'0 0.0
2017-Nov-18 23:00N 47°18' W 002°31'0 0.0
2017-Nov-18 22:30N 47°18' W 002°31'0 0.0
2017-Nov-18 22:00N 47°18' W 002°31'0 0.0
2017-Nov-18 21:30N 47°18' W 002°31'0 0.0
2017-Nov-18 21:00N 47°18' W 002°31'0 0.0
2017-Nov-18 20:30N 47°18' W 002°31'0 0.0
2017-Nov-18 20:00N 47°18' W 002°31'0 0.0
2017-Nov-18 19:30N 47°18' W 002°31'0 0.0
2017-Nov-18 18:59N 47°18' W 002°31'0 0.0
2017-Nov-18 18:30N 47°18' W 002°31'0 0.0
2017-Nov-18 18:00N 47°18' W 002°31'0 0.0
2017-Nov-18 17:30N 47°18' W 002°31'0 0.0
2017-Nov-18 17:00N 47°18' W 002°31'0 0.0
2017-Nov-18 16:30N 47°18' W 002°31'0 0.0
2017-Nov-18 16:00N 47°18' W 002°31'0 0.0
2017-Nov-18 15:30N 47°18' W 002°31'0 0.0
2017-Nov-18 15:00N 47°18' W 002°31'0 0.0
2017-Nov-18 14:30N 47°18' W 002°31'0 0.0
2017-Nov-18 13:59N 47°18' W 002°31'0 0.0
2017-Nov-18 13:25N 47°18' W 002°31'0 0.0
2017-Nov-18 13:00N 47°18' W 002°31'0 0.0
2017-Nov-18 12:30N 47°18' W 002°31'0 0.0
2017-Nov-18 12:00N 47°18' W 002°31'0 0.0
2017-Nov-18 11:30N 47°18' W 002°31'0 0.0
2017-Nov-18 11:00N 47°18' W 002°31'0 0.0
2017-Nov-18 10:30N 47°18' W 002°31'0 0.0
2017-Nov-18 10:00N 47°18' W 002°31'0 0.0
2017-Nov-18 09:30N 47°18' W 002°31'0 0.0
2017-Nov-18 09:00N 47°18' W 002°31'0 0.0
2017-Nov-18 08:30N 47°18' W 002°31'0 0.0
2017-Nov-18 07:59N 47°18' W 002°31'0 0.0
2017-Nov-18 07:30N 47°18' W 002°31'0 0.0
2017-Nov-18 07:00N 47°18' W 002°31'0 0.0
2017-Nov-18 06:30N 47°18' W 002°31'0 0.0
2017-Nov-18 06:00N 47°18' W 002°31'0 0.0
2017-Nov-18 05:30N 47°18' W 002°31'0 0.0
2017-Nov-18 04:54N 47°18' W 002°31'0 0.0
2017-Nov-18 04:30N 47°18' W 002°31'0 0.0
2017-Nov-18 04:00N 47°18' W 002°31'0 0.0
2017-Nov-18 03:30N 47°18' W 002°31'0 0.0
2017-Nov-18 03:00N 47°18' W 002°31'0 0.0
2017-Nov-18 02:30N 47°18' W 002°31'0 0.0
2017-Nov-18 02:00N 47°18' W 002°31'0 0.0
2017-Nov-18 01:30N 47°18' W 002°31'0 0.0
2017-Nov-18 01:00N 47°18' W 002°31'0 0.0
2017-Nov-18 00:30N 47°18' W 002°31'0 0.0
2017-Nov-18 00:00N 47°18' W 002°31'0 0.0
2017-Nov-17 23:30N 47°18' W 002°31'0 0.0
2017-Nov-17 23:00N 47°18' W 002°31'0 0.0
2017-Nov-17 22:30N 47°18' W 002°31'0 0.0
2017-Nov-17 22:00N 47°18' W 002°31'0 0.0
2017-Nov-17 21:30N 47°18' W 002°31'0 0.0
2017-Nov-17 21:00N 47°18' W 002°31'0 0.0
2017-Nov-17 20:30N 47°18' W 002°31'0 0.0
2017-Nov-17 20:00N 47°18' W 002°31'0 0.1
2017-Nov-17 19:30N 47°18' W 002°31'13 1.8
2017-Nov-17 12:10N 47°05' W 002°28'1 0.8
2017-Nov-17 11:21N 47°05' W 002°27'1 1.3
2017-Nov-17 10:53N 47°06' W 002°28'1 1.4
2017-Nov-17 10:18N 47°06' W 002°29'2 2.5
2017-Nov-17 09:38N 47°07' W 002°31'0 3.6
2017-Nov-17 09:30N 47°06' W 002°31'1 1.2
2017-Nov-17 09:00N 47°06' W 002°32'1 1.7
2017-Nov-17 08:30N 47°07' W 002°33'1 1.9
2017-Nov-17 08:00N 47°07' W 002°32'1 2.8
2017-Nov-17 07:30N 47°07' W 002°34'1 1.1
2017-Nov-17 07:00N 47°07' W 002°34'1 2.0
2017-Nov-17 06:30N 47°06' W 002°35'0 0.7
2017-Nov-17 05:56N 47°06' W 002°35'2 5.4
2017-Nov-17 05:30N 47°05' W 002°38'1 0.7
2017-Nov-17 04:35N 47°05' W 002°38'1 9.6
2017-Nov-17 04:30N 47°05' W 002°38'8 9.5
2017-Nov-17 03:40N 47°13' W 002°35'2 9.3
2017-Nov-17 03:29N 47°15' W 002°35'4 9.0
2017-Nov-17 03:00N 47°19' W 002°32'1 2.3
2017-Nov-17 02:29N 47°18' W 002°31'0 0.0
2017-Nov-17 02:00N 47°18' W 002°31'0 0.0
2017-Nov-17 01:29N 47°18' W 002°31'0 0.0
2017-Nov-17 00:57N 47°18' W 002°31'0 0.0
2017-Nov-17 00:30N 47°18' W 002°31'0 0.0
2017-Nov-17 00:00N 47°18' W 002°31'0 0.0
2017-Nov-16 23:30N 47°18' W 002°31'0 0.0
2017-Nov-16 23:00N 47°18' W 002°31'0 0.0
2017-Nov-16 22:30N 47°18' W 002°31'0 0.0
2017-Nov-16 22:00N 47°18' W 002°31'0 0.0
2017-Nov-16 21:30N 47°18' W 002°31'0 0.0
2017-Nov-16 21:00N 47°18' W 002°31'0 0.0
2017-Nov-16 20:30N 47°18' W 002°31'0 0.0
2017-Nov-16 20:00N 47°18' W 002°31'0 0.0
2017-Nov-16 19:30N 47°18' W 002°31'0 0.0
2017-Nov-16 19:00N 47°18' W 002°31'0 0.0
2017-Nov-16 18:30N 47°18' W 002°31'0 0.0
2017-Nov-16 18:00N 47°18' W 002°31'0 0.0
2017-Nov-16 17:30N 47°18' W 002°31'0 0.0
2017-Nov-16 17:00N 47°18' W 002°31'0 0.0
2017-Nov-16 16:30N 47°18' W 002°31'0 0.0
2017-Nov-16 16:00N 47°18' W 002°31'0 0.0
2017-Nov-16 15:30N 47°18' W 002°31'1 2.2
2017-Nov-16 15:00N 47°19' W 002°32'4 9.0
2017-Nov-16 14:30N 47°14' W 002°33'4 8.3
2017-Nov-16 14:00N 47°10' W 002°31'5 9.1
2017-Nov-16 13:30N 47°06' W 002°28'1 2.7
2017-Nov-16 13:00N 47°05' W 002°27'0 0.8
2017-Nov-16 12:30N 47°05' W 002°27'1 1.0
2017-Nov-16 12:00N 47°06' W 002°28'2 3.3
2017-Nov-16 11:30N 47°06' W 002°30'1 2.8
2017-Nov-16 11:00N 47°07' W 002°32'1 1.3
2017-Nov-16 10:30N 47°06' W 002°31'1 1.9
2017-Nov-16 10:00N 47°07' W 002°32'1 1.1
2017-Nov-16 09:30N 47°07' W 002°31'0 1.0
2017-Nov-16 09:00N 47°06' W 002°31'1 1.2
2017-Nov-16 08:30N 47°07' W 002°32'1 2.8
2017-Nov-16 08:00N 47°07' W 002°34'0 0.7
2017-Nov-16 07:30N 47°06' W 002°35'1 2.0
2017-Nov-16 07:00N 47°06' W 002°35'2 4.8
2017-Nov-16 06:30N 47°04' W 002°37'1 1.5
2017-Nov-16 06:00N 47°03' W 002°38'3 5.6
2017-Nov-16 05:30N 47°03' W 002°42'1 1.7
2017-Nov-16 05:00N 47°03' W 002°41'4 8.1
2017-Nov-16 04:30N 47°07' W 002°40'4 8.9
2017-Nov-16 04:00N 47°11' W 002°37'5 9.5
2017-Nov-16 03:30N 47°16' W 002°35'3 6.9
2017-Nov-16 03:00N 47°18' W 002°31'0 0.0
2017-Nov-16 02:30N 47°18' W 002°31'0 0.0
2017-Nov-16 02:00N 47°18' W 002°31'0 0.0
2017-Nov-16 01:30N 47°18' W 002°31'0 0.0
2017-Nov-16 01:00N 47°18' W 002°31'0 0.0
2017-Nov-16 00:30N 47°18' W 002°31'0 0.0
2017-Nov-15 23:59N 47°18' W 002°31'0 0.0
2017-Nov-15 23:30N 47°18' W 002°31'0 0.0
2017-Nov-15 23:00N 47°18' W 002°31'0 0.0
2017-Nov-15 22:30N 47°18' W 002°31'0 0.0
2017-Nov-15 21:57N 47°18' W 002°31'0 0.0
2017-Nov-15 21:30N 47°18' W 002°31'0 0.0
2017-Nov-15 20:58N 47°18' W 002°31'0 0.0
2017-Nov-15 20:30N 47°18' W 002°31'0 0.0
2017-Nov-15 19:58N 47°18' W 002°31'0 0.0
2017-Nov-15 19:30N 47°18' W 002°31'0 0.0
2017-Nov-15 18:55N 47°18' W 002°31'0 0.0
2017-Nov-15 18:30N 47°18' W 002°31'0 0.0
2017-Nov-15 18:00N 47°18' W 002°31'0 0.0
2017-Nov-15 17:30N 47°18' W 002°31'0 0.0
2017-Nov-15 17:00N 47°18' W 002°31'2 3.1
2017-Nov-15 16:24N 47°18' W 002°34'4 9.2
2017-Nov-15 15:57N 47°14' W 002°32'6 9.3
2017-Nov-15 15:16N 47°08' W 002°29'3 9.1
2017-Nov-15 14:54N 47°05' W 002°28'0 0.3
2017-Nov-15 14:24N 47°05' W 002°28'2 3.2
2017-Nov-15 13:50N 47°06' W 002°29'2 0.8
2017-Nov-15 11:53N 47°07' W 002°31'1 0.9
2017-Nov-15 10:44N 47°07' W 002°33'1 2.5
2017-Nov-15 10:28N 47°07' W 002°32'0 0.1
2017-Nov-15 10:00N 47°07' W 002°32'3 5.6
2017-Nov-15 09:23N 47°05' W 002°36'2 3.9
2017-Nov-15 08:55N 47°04' W 002°38'2 2.8
2017-Nov-15 08:16N 47°03' W 002°36'1 2.2
2017-Nov-15 08:00N 47°03' W 002°36'2 4.3
2017-Nov-15 07:29N 47°01' W 002°34'1 1.9
2017-Nov-15 06:56N 47°02' W 002°36'2 4.3
2017-Nov-15 06:30N 47°02' W 002°38'0 0.4
2017-Nov-15 05:55N 47°02' W 002°39'2 5.6
2017-Nov-15 05:29N 47°04' W 002°41'0 0.9
2017-Nov-15 04:57N 47°04' W 002°40'4 7.9
2017-Nov-15 04:30N 47°07' W 002°39'5 9.8
2017-Nov-15 03:58N 47°12' W 002°37'5 9.6
2017-Nov-15 03:28N 47°17' W 002°34'3 5.8
2017-Nov-15 03:00N 47°18' W 002°31'0 0.0
2017-Nov-15 02:30N 47°18' W 002°31'0 0.0
2017-Nov-15 02:00N 47°18' W 002°31'0 0.0
2017-Nov-15 01:30N 47°18' W 002°31'0 0.0
2017-Nov-15 01:00N 47°18' W 002°31'0 0.0
2017-Nov-15 00:30N 47°18' W 002°31'0 0.0
2017-Nov-15 00:00N 47°18' W 002°31'0 0.0
2017-Nov-14 23:30N 47°18' W 002°31'0 0.0
2017-Nov-14 22:59N 47°18' W 002°31'0 0.0
2017-Nov-14 22:30N 47°18' W 002°31'0 0.0
2017-Nov-14 22:00N 47°18' W 002°31'0 0.0
2017-Nov-14 21:30N 47°18' W 002°31'0 0.0
2017-Nov-14 20:59N 47°18' W 002°31'0 0.0
2017-Nov-14 20:30N 47°18' W 002°31'0 0.0
2017-Nov-14 20:00N 47°18' W 002°31'0 0.0
2017-Nov-14 19:30N 47°18' W 002°31'0 0.0
2017-Nov-14 19:00N 47°18' W 002°31'0 0.0
2017-Nov-14 18:29N 47°18' W 002°31'0 0.0
2017-Nov-14 18:00N 47°18' W 002°31'0 0.0
2017-Nov-14 17:28N 47°18' W 002°31'0 0.0
2017-Nov-14 16:59N 47°18' W 002°31'0 0.0
2017-Nov-14 16:30N 47°18' W 002°31'13 4.0
2017-Nov-14 13:19N 47°05' W 002°27'4 1.5
2017-Nov-14 10:44N 47°07' W 002°33'0 0.4
2017-Nov-14 10:30N 47°06' W 002°33'3 6.1
2017-Nov-14 09:57N 47°05' W 002°37'1 0.9
2017-Nov-14 09:03N 47°05' W 002°38'0 1.6
2017-Nov-14 08:58N 47°05' W 002°38'3 5.7
2017-Nov-14 08:30N 47°03' W 002°35'1 1.3
2017-Nov-14 07:49N 47°02' W 002°34'2 2.4
2017-Nov-14 06:49N 47°02' W 002°38'0 0.9
2017-Nov-14 06:17N 47°03' W 002°38'3 7.1
2017-Nov-14 05:52N 47°05' W 002°41'0 0.4
2017-Nov-14 05:20N 47°05' W 002°40'3 9.5
2017-Nov-14 05:00N 47°08' W 002°40'5 9.8
2017-Nov-14 04:30N 47°12' W 002°37'5 9.6
2017-Nov-14 04:00N 47°17' W 002°34'3 5.2
2017-Nov-14 03:29N 47°18' W 002°31'0 0.0
2017-Nov-14 03:00N 47°18' W 002°31'0 0.0
2017-Nov-14 02:30N 47°18' W 002°31'0 0.0
2017-Nov-14 02:00N 47°18' W 002°31'0 0.0
2017-Nov-14 01:30N 47°18' W 002°31'0 0.0
2017-Nov-14 01:00N 47°18' W 002°31'0 0.0
2017-Nov-14 00:30N 47°18' W 002°31'0 0.0
2017-Nov-14 00:00N 47°18' W 002°31'  

Dump ship's entire track history